^^
Saratoga-Weather Station Historical Data
Daily Summary for June 4, 2021 Units:  Both    English   Metric
Daily Weekly Monthly Yearly Custom
  High: Low: Average:
Temperature: 53.8 °F /  12.1 °C 43.2 °F /  6.2 °C 49.3 °F /  9.6 °C
Dew Point: 46.6 °F /  8.1 °C 29.8 °F /  -1.2 °C 38.7 °F /  3.7 °C
Humidity: 87% 43% 68%
Wind Speed: 14.1mph /  22.7km/h - 3.9mph /  6.2km/h
Wind Gust: 24mph /  38.6km/h - -
Wind- - SW
Pressure: 29.9 in /  1011.5 hPa 29.7 in /  1004.7 hPa -
Precipitation: 0.29 in /  7.4 mm    
Historical Graphs
 
 
Tabular Data for June 4, 2021
Time Temperature Dew Point Pressure Wind Wind Speed Wind Gust Humidity Rainfall Rate (Hourly) solar
00:04 48.6 °F /  9.2 °C 35.8 °F /  2.1 °C 29.9in /  1011.5hPa NE 0.9mph /  1.4km/h 2mph /  3.2km/h 61% 0in /  0.0mm 0 W/m2
00:09 49.3 °F /  9.6 °C 35.6 °F /  2 °C 29.9in /  1011.2hPa NE 2mph /  3.2km/h 4mph /  6.4km/h 59% 0in /  0.0mm 0 W/m2
00:14 49.8 °F /  9.9 °C 35.2 °F /  1.8 °C 29.9in /  1011.2hPa NE 0.9mph /  1.4km/h 2mph /  3.2km/h 57% 0in /  0.0mm 0 W/m2
00:19 50.4 °F /  10.2 °C 35.2 °F /  1.8 °C 29.9in /  1011.2hPa North 2.9mph /  4.7km/h 5mph /  8km/h 56% 0in /  0.0mm 0 W/m2
00:24 50.9 °F /  10.5 °C 35.2 °F /  1.8 °C 29.9in /  1010.8hPa ENE 4mph /  6.4km/h 4mph /  6.4km/h 55% 0in /  0.0mm 0 W/m2
00:29 51.4 °F /  10.8 °C 35.4 °F /  1.9 °C 29.9in /  1010.8hPa NNE 0.9mph /  1.4km/h 6mph /  9.7km/h 54% 0in /  0.0mm 0 W/m2
00:35 51.8 °F /  11 °C 35.2 °F /  1.8 °C 29.9in /  1010.8hPa Calm   6mph /  9.7km/h 53% 0in /  0.0mm 0 W/m2
00:40 52 °F /  11.1 °C 35.4 °F /  1.9 °C 29.9in /  1010.8hPa ENE 4mph /  6.4km/h 5mph /  8km/h 53% 0in /  0.0mm 0 W/m2
00:45 52.2 °F /  11.2 °C 35.6 °F /  2 °C 29.9in /  1010.8hPa NE 2mph /  3.2km/h 3mph /  4.8km/h 53% 0in /  0.0mm 0 W/m2
00:50 52.3 °F /  11.3 °C 35.2 °F /  1.8 °C 29.8in /  1010.5hPa NW 6.9mph /  11.1km/h 8mph /  12.9km/h 52% 0in /  0.0mm 0 W/m2
00:55 52.5 °F /  11.4 °C 35.4 °F /  1.9 °C 29.8in /  1010.5hPa North 2.9mph /  4.7km/h 5mph /  8km/h 52% 0in /  0.0mm 0 W/m2
01:00 52.5 °F /  11.4 °C 35.4 °F /  1.9 °C 29.8in /  1010.5hPa WNW 2.9mph /  4.7km/h 8mph /  12.9km/h 52% 0in /  0.0mm 0 W/m2
01:05 52.5 °F /  11.4 °C 35.4 °F /  1.9 °C 29.8in /  1010.5hPa ENE 0.9mph /  1.4km/h 4mph /  6.4km/h 52% 0in /  0.0mm 0 W/m2
01:10 52.5 °F /  11.4 °C 35.4 °F /  1.9 °C 29.8in /  1010.2hPa North 0.9mph /  1.4km/h 3mph /  4.8km/h 52% 0in /  0.0mm 0 W/m2
01:15 52.3 °F /  11.3 °C 35.2 °F /  1.8 °C 29.8in /  1010.2hPa NE 0.9mph /  1.4km/h 4mph /  6.4km/h 52% 0in /  0.0mm 0 W/m2
01:20 52.3 °F /  11.3 °C 35.2 °F /  1.8 °C 29.8in /  1010.2hPa North 0.9mph /  1.4km/h 5mph /  8km/h 52% 0in /  0.0mm 0 W/m2
01:25 52.3 °F /  11.3 °C 35.8 °F /  2.1 °C 29.8in /  1010.2hPa NE 2.9mph /  4.7km/h 3mph /  4.8km/h 53% 0in /  0.0mm 0 W/m2
01:30 52.3 °F /  11.3 °C 35.8 °F /  2.1 °C 29.8in /  1009.8hPa NNE 2.9mph /  4.7km/h 9mph /  14.5km/h 53% 0in /  0.0mm 0 W/m2
01:35 52.3 °F /  11.3 °C 35.8 °F /  2.1 °C 29.8in /  1009.5hPa North 0.9mph /  1.4km/h 6mph /  9.7km/h 53% 0in /  0.0mm 0 W/m2
01:40 52.3 °F /  11.3 °C 35.8 °F /  2.1 °C 29.8in /  1009.5hPa NNE 0.9mph /  1.4km/h 4mph /  6.4km/h 53% 0in /  0.0mm 0 W/m2
01:45 52.2 °F /  11.2 °C 35.6 °F /  2 °C 29.8in /  1009.5hPa NNW 2mph /  3.2km/h 4mph /  6.4km/h 53% 0in /  0.0mm 0 W/m2
01:50 52.2 °F /  11.2 °C 36 °F /  2.2 °C 29.8in /  1009.5hPa NE 2mph /  3.2km/h 6mph /  9.7km/h 54% 0in /  0.0mm 0 W/m2
01:55 52.2 °F /  11.2 °C 36 °F /  2.2 °C 29.8in /  1009.1hPa NNW 4mph /  6.4km/h 5mph /  8km/h 54% 0in /  0.0mm 0 W/m2
02:01 52 °F /  11.1 °C 35.8 °F /  2.1 °C 29.8in /  1009.1hPa North 2.9mph /  4.7km/h 5mph /  8km/h 54% 0in /  0.0mm 0 W/m2
02:06 52 °F /  11.1 °C 35.8 °F /  2.1 °C 29.8in /  1009.1hPa NNE 2mph /  3.2km/h 8mph /  12.9km/h 54% 0in /  0.0mm 0 W/m2
02:11 52 °F /  11.1 °C 35.8 °F /  2.1 °C 29.8in /  1009.1hPa NNE 2.9mph /  4.7km/h 3mph /  4.8km/h 54% 0in /  0.0mm 0 W/m2
02:16 51.8 °F /  11 °C 35.6 °F /  2 °C 29.8in /  1009.1hPa NW 2.9mph /  4.7km/h 8mph /  12.9km/h 54% 0in /  0.0mm 0 W/m2
02:21 52 °F /  11.1 °C 35.8 °F /  2.1 °C 29.8in /  1008.8hPa NE 2mph /  3.2km/h 4mph /  6.4km/h 54% 0in /  0.0mm 0 W/m2
02:26 51.8 °F /  11 °C 35.6 °F /  2 °C 29.8in /  1008.8hPa SE 0.9mph /  1.4km/h 4mph /  6.4km/h 54% 0in /  0.0mm 0 W/m2
02:31 51.6 °F /  10.9 °C 36 °F /  2.2 °C 29.8in /  1008.5hPa Calm   3mph /  4.8km/h 55% 0in /  0.0mm 0 W/m2
02:36 51.4 °F /  10.8 °C 35.8 °F /  2.1 °C 29.8in /  1008.5hPa ENE 11mph /  17.7km/h 14mph /  22.5km/h 55% 0in /  0.0mm 0 W/m2
02:41 51.6 °F /  10.9 °C 36 °F /  2.2 °C 29.8in /  1008.5hPa NE 0.9mph /  1.4km/h 3mph /  4.8km/h 55% 0in /  0.0mm 0 W/m2
02:46 51.4 °F /  10.8 °C 35.8 °F /  2.1 °C 29.8in /  1008.5hPa North 4mph /  6.4km/h 14mph /  22.5km/h 55% 0in /  0.0mm 0 W/m2
02:51 51.4 °F /  10.8 °C 35.8 °F /  2.1 °C 29.8in /  1008.5hPa North 0.9mph /  1.4km/h 4mph /  6.4km/h 55% 0in /  0.0mm 0 W/m2
02:56 51.3 °F /  10.7 °C 36.1 °F /  2.3 °C 29.8in /  1008.1hPa NNE 2.9mph /  4.7km/h 5mph /  8km/h 56% 0in /  0.0mm 0 W/m2
03:01 51.4 °F /  10.8 °C 35.8 °F /  2.1 °C 29.8in /  1008.1hPa NW 0.9mph /  1.4km/h 3mph /  4.8km/h 55% 0in /  0.0mm 0 W/m2
03:06 51.4 °F /  10.8 °C 36.3 °F /  2.4 °C 29.8in /  1008.1hPa NW 2mph /  3.2km/h 3mph /  4.8km/h 56% 0in /  0.0mm 0 W/m2
03:11 51.3 °F /  10.7 °C 36.1 °F /  2.3 °C 29.8in /  1007.8hPa Calm   2mph /  3.2km/h 56% 0in /  0.0mm 0 W/m2
03:16 51.3 °F /  10.7 °C 36.1 °F /  2.3 °C 29.8in /  1007.8hPa North 0.9mph /  1.4km/h 3mph /  4.8km/h 56% 0in /  0.0mm 0 W/m2
03:21 51.3 °F /  10.7 °C 36.1 °F /  2.3 °C 29.8in /  1007.8hPa North 2mph /  3.2km/h 5mph /  8km/h 56% 0in /  0.0mm 0 W/m2
03:26 51.1 °F /  10.6 °C 36 °F /  2.2 °C 29.8in /  1007.8hPa North 0.9mph /  1.4km/h 3mph /  4.8km/h 56% 0in /  0.0mm 0 W/m2
03:31 50.9 °F /  10.5 °C 36.1 °F /  2.3 °C 29.8in /  1007.5hPa WNW 4mph /  6.4km/h 7mph /  11.3km/h 57% 0in /  0.0mm 0 W/m2
03:36 50.7 °F /  10.4 °C 36 °F /  2.2 °C 29.8in /  1007.5hPa ESE 2.9mph /  4.7km/h 4mph /  6.4km/h 57% 0in /  0.0mm 0 W/m2
03:41 50.5 °F /  10.3 °C 36.3 °F /  2.4 °C 29.7in /  1007.1hPa ENE 2mph /  3.2km/h 9mph /  14.5km/h 58% 0in /  0.0mm 0 W/m2
03:46 50.5 °F /  10.3 °C 36.3 °F /  2.4 °C 29.7in /  1007.1hPa NNW 2mph /  3.2km/h 4mph /  6.4km/h 58% 0in /  0.0mm 0 W/m2
03:51 50.4 °F /  10.2 °C 36.1 °F /  2.3 °C 29.7in /  1007.1hPa NE 6mph /  9.7km/h 9mph /  14.5km/h 58% 0in /  0.0mm 0 W/m2
03:56 50.2 °F /  10.1 °C 36 °F /  2.2 °C 29.7in /  1007.1hPa ENE 2mph /  3.2km/h 8mph /  12.9km/h 58% 0in /  0.0mm 0 W/m2
04:01 50.2 °F /  10.1 °C 36 °F /  2.2 °C 29.7in /  1007.1hPa NE 2mph /  3.2km/h 9mph /  14.5km/h 58% 0in /  0.0mm 0 W/m2
04:06 50.2 °F /  10.1 °C 36.3 °F /  2.4 °C 29.7in /  1007.1hPa East 0.9mph /  1.4km/h 3mph /  4.8km/h 59% 0in /  0.0mm 0 W/m2
04:11 50.2 °F /  10.1 °C 36.3 °F /  2.4 °C 29.7in /  1006.8hPa North 2.9mph /  4.7km/h 3mph /  4.8km/h 59% 0in /  0.0mm 0 W/m2
04:16 50 °F /  10 °C 36.3 °F /  2.4 °C 29.7in /  1006.8hPa East 2mph /  3.2km/h 5mph /  8km/h 59% 0in /  0.0mm 0 W/m2
04:21 50.4 °F /  10.2 °C 36.1 °F /  2.3 °C 29.7in /  1006.8hPa NNW 2mph /  3.2km/h 5mph /  8km/h 58% 0in /  0.0mm 0 W/m2
04:26 50.4 °F /  10.2 °C 36.1 °F /  2.3 °C 29.7in /  1006.8hPa West 2.9mph /  4.7km/h 10mph /  16.1km/h 58% 0in /  0.0mm 0 W/m2
04:31 50.5 °F /  10.3 °C 36 °F /  2.2 °C 29.7in /  1006.8hPa West 2.9mph /  4.7km/h 7mph /  11.3km/h 57% 0in /  0.0mm 0 W/m2
04:36 50.5 °F /  10.3 °C 36 °F /  2.2 °C 29.7in /  1006.4hPa ESE 2.9mph /  4.7km/h 5mph /  8km/h 57% 0in /  0.0mm 0 W/m2
04:41 50.7 °F /  10.4 °C 35.6 °F /  2 °C 29.7in /  1006.4hPa West 2.9mph /  4.7km/h 4mph /  6.4km/h 56% 0in /  0.0mm 0 W/m2
04:47 50.9 °F /  10.5 °C 35.8 °F /  2.1 °C 29.7in /  1006.4hPa NNE 2mph /  3.2km/h 5mph /  8km/h 56% 0in /  0.0mm 0 W/m2
04:52 51.1 °F /  10.6 °C 35.4 °F /  1.9 °C 29.7in /  1006.4hPa NNW 6mph /  9.7km/h 9mph /  14.5km/h 55% 0in /  0.0mm 0 W/m2
04:57 51.3 °F /  10.7 °C 34.7 °F /  1.5 °C 29.7in /  1006.4hPa ENE 2mph /  3.2km/h 6mph /  9.7km/h 53% 0in /  0.0mm 0 W/m2
05:02 51.4 °F /  10.8 °C 34.3 °F /  1.3 °C 29.7in /  1006.1hPa NW 2mph /  3.2km/h 3mph /  4.8km/h 52% 0in /  0.0mm 0 W/m2
05:07 51.4 °F /  10.8 °C 34 °F /  1.1 °C 29.7in /  1006.1hPa WNW 4mph /  6.4km/h 4mph /  6.4km/h 51% 0in /  0.0mm 0 W/m2
05:12 51.6 °F /  10.9 °C 33.6 °F /  0.9 °C 29.7in /  1006.1hPa South 2.9mph /  4.7km/h 8mph /  12.9km/h 50% 0in /  0.0mm 0 W/m2
05:17 51.6 °F /  10.9 °C 33.1 °F /  0.6 °C 29.7in /  1006.1hPa NNE 2.9mph /  4.7km/h 6mph /  9.7km/h 49% 0in /  0.0mm 0 W/m2
05:22 51.8 °F /  11 °C 33.3 °F /  0.7 °C 29.7in /  1006.1hPa NW 2mph /  3.2km/h 22mph /  35.4km/h 49% 0in /  0.0mm 0 W/m2
05:27 51.8 °F /  11 °C 32.7 °F /  0.4 °C 29.7in /  1006.1hPa WNW 2.9mph /  4.7km/h 4mph /  6.4km/h 48% 0in /  0.0mm 0 W/m2
05:32 51.8 °F /  11 °C 32.7 °F /  0.4 °C 29.7in /  1006.1hPa WNW 8.1mph /  13km/h 22mph /  35.4km/h 48% 0in /  0.0mm 0 W/m2
05:37 51.8 °F /  11 °C 32.7 °F /  0.4 °C 29.7in /  1006.1hPa WNW 2mph /  3.2km/h 8mph /  12.9km/h 48% 0in /  0.0mm 0 W/m2
05:42 51.8 °F /  11 °C 32.7 °F /  0.4 °C 29.7in /  1005.8hPa NW 11mph /  17.7km/h 11mph /  17.7km/h 48% 0in /  0.0mm 0 W/m2
05:47 51.6 °F /  10.9 °C 32 °F /  0 °C 29.7in /  1006.1hPa West 14.1mph /  22.7km/h 14mph /  22.5km/h 47% 0in /  0.0mm 0 W/m2
05:52 51.6 °F /  10.9 °C 30.9 °F /  -0.6 °C 29.7in /  1005.8hPa NNW 4.9mph /  7.9km/h 7mph /  11.3km/h 45% 0in /  0.0mm 0 W/m2
05:57 51.6 °F /  10.9 °C 30.4 °F /  -0.9 °C 29.7in /  1005.8hPa SE 0.9mph /  1.4km/h 5mph /  8km/h 44% 0in /  0.0mm 0 W/m2
06:02 51.6 °F /  10.9 °C 29.8 °F /  -1.2 °C 29.7in /  1005.8hPa West 8.1mph /  13km/h 9mph /  14.5km/h 43% 0in /  0.0mm 0 W/m2
06:07 51.6 °F /  10.9 °C 30.4 °F /  -0.9 °C 29.7in /  1005.8hPa NNE 0.9mph /  1.4km/h 7mph /  11.3km/h 44% 0in /  0.0mm 0 W/m2
06:12 51.6 °F /  10.9 °C 30.4 °F /  -0.9 °C 29.7in /  1005.8hPa WNW 0.9mph /  1.4km/h 6mph /  9.7km/h 44% 0in /  0.0mm 0 W/m2
06:17 51.6 °F /  10.9 °C 29.8 °F /  -1.2 °C 29.7in /  1006.1hPa NW 4.9mph /  7.9km/h 10mph /  16.1km/h 43% 0in /  0.0mm 0 W/m2
06:22 51.6 °F /  10.9 °C 29.8 °F /  -1.2 °C 29.7in /  1005.8hPa WNW 2.9mph /  4.7km/h 8mph /  12.9km/h 43% 0in /  0.0mm 0 W/m2
06:27 51.4 °F /  10.8 °C 30.2 °F /  -1 °C 29.7in /  1005.8hPa West 2mph /  3.2km/h 10mph /  16.1km/h 44% 0in /  0.0mm 5 W/m2
06:32 51.4 °F /  10.8 °C 30.2 °F /  -1 °C 29.7in /  1006.1hPa SSW 2.9mph /  4.7km/h 9mph /  14.5km/h 44% 0in /  0.0mm 5 W/m2
06:37 51.1 °F /  10.6 °C 31.6 °F /  -0.2 °C 29.7in /  1006.1hPa NW 12.1mph /  19.5km/h 13mph /  20.9km/h 47% 0in /  0.0mm 7 W/m2
06:42 50.4 °F /  10.2 °C 33.4 °F /  0.8 °C 29.7in /  1006.1hPa West 2mph /  3.2km/h 8mph /  12.9km/h 52% 0in /  0.0mm 5 W/m2
06:47 49.3 °F /  9.6 °C 33.8 °F /  1 °C 29.7in /  1005.8hPa NW 4.9mph /  7.9km/h 13mph /  20.9km/h 55% 0.01in /  0.2mm 5 W/m2
06:52 48.4 °F /  9.1 °C 35.1 °F /  1.7 °C 29.7in /  1005.8hPa South 2mph /  3.2km/h 10mph /  16.1km/h 60% 0.02in /  0.5mm 5 W/m2
06:57 47.3 °F /  8.5 °C 36.1 °F /  2.3 °C 29.7in /  1006.1hPa West 2mph /  3.2km/h 13mph /  20.9km/h 65% 0.03in /  0.8mm 7 W/m2
07:02 46.2 °F /  7.9 °C 36.3 °F /  2.4 °C 29.7in /  1006.1hPa NNW 4.9mph /  7.9km/h 5mph /  8km/h 68% 0.05in /  1.3mm 12 W/m2
07:07 45.9 °F /  7.7 °C 37 °F /  2.8 °C 29.7in /  1006.1hPa NNW 0.9mph /  1.4km/h 7mph /  11.3km/h 71% 0.06in /  1.5mm 21 W/m2
07:12 45.3 °F /  7.4 °C 36.9 °F /  2.7 °C 29.7in /  1006.1hPa WSW 2mph /  3.2km/h 6mph /  9.7km/h 72% 0.06in /  1.5mm 21 W/m2
07:17 45.1 °F /  7.3 °C 36.7 °F /  2.6 °C 29.7in /  1006.1hPa NW 4.9mph /  7.9km/h 10mph /  16.1km/h 72% 0.07in /  1.8mm 19 W/m2
07:22 45 °F /  7.2 °C 37.2 °F /  2.9 °C 29.7in /  1006.1hPa NW 4.9mph /  7.9km/h 9mph /  14.5km/h 74% 0.08in /  2.0mm 21 W/m2
07:27 44.6 °F /  7 °C 37.2 °F /  2.9 °C 29.7in /  1006.1hPa North 10.1mph /  16.3km/h 11mph /  17.7km/h 75% 0.09in /  2.3mm 23 W/m2
07:32 44.4 °F /  6.9 °C 37.6 °F /  3.1 °C 29.7in /  1006.1hPa WNW 4mph /  6.4km/h 8mph /  12.9km/h 77% 0.1in /  2.5mm 25 W/m2
07:37 44.1 °F /  6.7 °C 37.6 °F /  3.1 °C 29.7in /  1006.1hPa NNW 4mph /  6.4km/h 11mph /  17.7km/h 78% 0.12in /  3.0mm 23 W/m2
07:42 43.9 °F /  6.6 °C 37.8 °F /  3.2 °C 29.7in /  1006.1hPa NW 0.9mph /  1.4km/h 7mph /  11.3km/h 79% 0.13in /  3.3mm 25 W/m2
07:47 43.7 °F /  6.5 °C 37.9 °F /  3.3 °C 29.7in /  1006.1hPa North 2mph /  3.2km/h 9mph /  14.5km/h 80% 0.13in /  3.3mm 26 W/m2
07:52 43.7 °F /  6.5 °C 38.3 °F /  3.5 °C 29.7in /  1006.1hPa ESE 2mph /  3.2km/h 4mph /  6.4km/h 81% 0.13in /  3.3mm 33 W/m2
07:57 43.5 °F /  6.4 °C 38.5 °F /  3.6 °C 29.7in /  1006.1hPa West 2mph /  3.2km/h 4mph /  6.4km/h 82% 0.13in /  3.3mm 25 W/m2
08:02 43.3 °F /  6.3 °C 38.3 °F /  3.5 °C 29.7in /  1006.1hPa NW 2mph /  3.2km/h 4mph /  6.4km/h 82% 0.13in /  3.3mm 32 W/m2
08:07 43.3 °F /  6.3 °C 38.3 °F /  3.5 °C 29.7in /  1006.1hPa SSW 2mph /  3.2km/h 3mph /  4.8km/h 82% 0.13in /  3.3mm 30 W/m2
08:12 43.3 °F /  6.3 °C 38.3 °F /  3.5 °C 29.7in /  1006.1hPa NE 0.9mph /  1.4km/h 12mph /  19.3km/h 82% 0.13in /  3.3mm 26 W/m2
08:17 43.3 °F /  6.3 °C 38.5 °F /  3.6 °C 29.7in /  1005.8hPa NNW 2.9mph /  4.7km/h 11mph /  17.7km/h 83% 0.13in /  3.3mm 30 W/m2
08:22 43.2 °F /  6.2 °C 38.7 °F /  3.7 °C 29.7in /  1005.8hPa West 0.9mph /  1.4km/h 11mph /  17.7km/h 84% 0.14in /  3.6mm 33 W/m2
08:27 43.2 °F /  6.2 °C 38.7 °F /  3.7 °C 29.7in /  1005.8hPa NNW 2mph /  3.2km/h 9mph /  14.5km/h 84% 0.13in /  3.3mm 42 W/m2
08:32 43.2 °F /  6.2 °C 38.7 °F /  3.7 °C 29.7in /  1005.8hPa ENE 6mph /  9.7km/h 8mph /  12.9km/h 84% 0.13in /  3.3mm 40 W/m2
08:37 43.2 °F /  6.2 °C 39 °F /  3.9 °C 29.7in /  1005.8hPa NW 4mph /  6.4km/h 13mph /  20.9km/h 85% 0.13in /  3.3mm 53 W/m2
08:42 43.2 °F /  6.2 °C 39 °F /  3.9 °C 29.7in /  1005.8hPa NNW 4mph /  6.4km/h 6mph /  9.7km/h 85% 0.13in /  3.3mm 63 W/m2
08:47 43.2 °F /  6.2 °C 39.2 °F /  4 °C 29.7in /  1005.8hPa NNE 2.9mph /  4.7km/h 13mph /  20.9km/h 86% 0.13in /  3.3mm 86 W/m2
08:52 43.2 °F /  6.2 °C 39.2 °F /  4 °C 29.7in /  1005.8hPa ESE 4mph /  6.4km/h 7mph /  11.3km/h 86% 0.11in /  2.8mm 95 W/m2
08:57 43.3 °F /  6.3 °C 39.4 °F /  4.1 °C 29.7in /  1005.8hPa NW 6mph /  9.7km/h 8mph /  12.9km/h 86% 0.11in /  2.8mm 74 W/m2
09:02 43.5 °F /  6.4 °C 39.6 °F /  4.2 °C 29.7in /  1005.4hPa ENE 0.9mph /  1.4km/h 6mph /  9.7km/h 86% 0.1in /  2.5mm 102 W/m2
09:07 43.5 °F /  6.4 °C 39.6 °F /  4.2 °C 29.7in /  1005.8hPa North 4mph /  6.4km/h 4mph /  6.4km/h 86% 0.1in /  2.5mm 120 W/m2
09:12 43.7 °F /  6.5 °C 39.7 °F /  4.3 °C 29.7in /  1005.8hPa East 2.9mph /  4.7km/h 6mph /  9.7km/h 86% 0.09in /  2.3mm 97 W/m2
09:17 43.9 °F /  6.6 °C 40.3 °F /  4.6 °C 29.7in /  1005.4hPa West 2.9mph /  4.7km/h 11mph /  17.7km/h 87% 0.08in /  2.0mm 128 W/m2
09:22 43.9 °F /  6.6 °C 40.3 °F /  4.6 °C 29.7in /  1005.1hPa WSW 4mph /  6.4km/h 18mph /  29km/h 87% 0.07in /  1.8mm 153 W/m2
09:27 44.1 °F /  6.7 °C 40.5 °F /  4.7 °C 29.7in /  1005.1hPa ENE 8.1mph /  13km/h 8mph /  12.9km/h 87% 0.06in /  1.5mm 171 W/m2
09:32 44.2 °F /  6.8 °C 40.6 °F /  4.8 °C 29.7in /  1005.4hPa WSW 2mph /  3.2km/h 8mph /  12.9km/h 87% 0.06in /  1.5mm 165 W/m2
09:37 44.6 °F /  7 °C 41 °F /  5 °C 29.7in /  1005.4hPa NE 0.9mph /  1.4km/h 12mph /  19.3km/h 87% 0.05in /  1.3mm 211 W/m2
09:42 44.8 °F /  7.1 °C 41.2 °F /  5.1 °C 29.7in /  1005.4hPa NW 10.1mph /  16.3km/h 10mph /  16.1km/h 87% 0.04in /  1.0mm 206 W/m2
09:47 45 °F /  7.2 °C 41 °F /  5 °C 29.7in /  1005.4hPa NW 8.1mph /  13km/h 11mph /  17.7km/h 86% 0.03in /  0.8mm 165 W/m2
09:52 45.1 °F /  7.3 °C 41.2 °F /  5.1 °C 29.7in /  1005.8hPa WNW 6mph /  9.7km/h 12mph /  19.3km/h 86% 0.03in /  0.8mm 199 W/m2
09:57 45.1 °F /  7.3 °C 41.2 °F /  5.1 °C 29.7in /  1005.4hPa NNW 2mph /  3.2km/h 9mph /  14.5km/h 86% 0.02in /  0.5mm 230 W/m2
10:02 45.3 °F /  7.4 °C 41.7 °F /  5.4 °C 29.7in /  1005.8hPa West 6mph /  9.7km/h 11mph /  17.7km/h 87% 0.02in /  0.5mm 236 W/m2
10:07 45.7 °F /  7.6 °C 41.7 °F /  5.4 °C 29.7in /  1005.8hPa West 13mph /  20.9km/h 13mph /  20.9km/h 86% 0.01in /  0.2mm 183 W/m2
10:12 45.7 °F /  7.6 °C 41.7 °F /  5.4 °C 29.7in /  1005.8hPa NW 4.9mph /  7.9km/h 9mph /  14.5km/h 86% 0.01in /  0.2mm 125 W/m2
10:17 45.7 °F /  7.6 °C 41.7 °F /  5.4 °C 29.7in /  1005.4hPa NNW 4mph /  6.4km/h 13mph /  20.9km/h 86% 0in /  0.0mm 220 W/m2
10:22 45.9 °F /  7.7 °C 41.9 °F /  5.5 °C 29.7in /  1005.4hPa NW 2mph /  3.2km/h 9mph /  14.5km/h 86% 0in /  0.0mm 172 W/m2
10:27 45.9 °F /  7.7 °C 41.9 °F /  5.5 °C 29.7in /  1005.4hPa NNE 2mph /  3.2km/h 11mph /  17.7km/h 86% 0in /  0.0mm 185 W/m2
10:32 46 °F /  7.8 °C 42.1 °F /  5.6 °C 29.7in /  1005.4hPa West 2mph /  3.2km/h 13mph /  20.9km/h 86% 0in /  0.0mm 195 W/m2
10:37 46.2 °F /  7.9 °C 42.3 °F /  5.7 °C 29.7in /  1005.4hPa NNE 2mph /  3.2km/h 6mph /  9.7km/h 86% 0in /  0.0mm 155 W/m2
10:42 46.6 °F /  8.1 °C 42.6 °F /  5.9 °C 29.7in /  1005.4hPa NW 2mph /  3.2km/h 7mph /  11.3km/h 86% 0in /  0.0mm 223 W/m2
10:47 46.9 °F /  8.3 °C 43 °F /  6.1 °C 29.7in /  1005.1hPa WNW 10.1mph /  16.3km/h 12mph /  19.3km/h 86% 0in /  0.0mm 255 W/m2
10:52 47.1 °F /  8.4 °C 43.2 °F /  6.2 °C 29.7in /  1005.4hPa NNW 6mph /  9.7km/h 14mph /  22.5km/h 86% 0in /  0.0mm 322 W/m2
10:57 47.7 °F /  8.7 °C 43.7 °F /  6.5 °C 29.7in /  1005.4hPa North 2.9mph /  4.7km/h 6mph /  9.7km/h 86% 0in /  0.0mm 436 W/m2
11:02 48.2 °F /  9 °C 43.9 °F /  6.6 °C 29.7in /  1005.4hPa North 2mph /  3.2km/h 17mph /  27.4km/h 85% 0in /  0.0mm 316 W/m2
11:07 48.4 °F /  9.1 °C 44.1 °F /  6.7 °C 29.7in /  1005.1hPa NW 2.9mph /  4.7km/h 4mph /  6.4km/h 85% 0in /  0.0mm 294 W/m2
11:12 48.6 °F /  9.2 °C 44.2 °F /  6.8 °C 29.7in /  1005.1hPa NNW 4.9mph /  7.9km/h 6mph /  9.7km/h 85% 0in /  0.0mm 325 W/m2
11:17 48.6 °F /  9.2 °C 44.2 °F /  6.8 °C 29.7in /  1005.4hPa NNW 4.9mph /  7.9km/h 10mph /  16.1km/h 85% 0in /  0.0mm 411 W/m2
11:22 48.7 °F /  9.3 °C 44.4 °F /  6.9 °C 29.7in /  1005.1hPa NW 2mph /  3.2km/h 7mph /  11.3km/h 85% 0in /  0.0mm 338 W/m2
11:27 48.9 °F /  9.4 °C 44.2 °F /  6.8 °C 29.7in /  1005.4hPa West 6.9mph /  11.1km/h 13mph /  20.9km/h 84% 0in /  0.0mm 322 W/m2
11:32 49.3 °F /  9.6 °C 45 °F /  7.2 °C 29.7in /  1005.4hPa NW 4.9mph /  7.9km/h 8mph /  12.9km/h 85% 0in /  0.0mm 288 W/m2
11:37 49.5 °F /  9.7 °C 44.8 °F /  7.1 °C 29.7in /  1005.4hPa West 13mph /  20.9km/h 16mph /  25.7km/h 84% 0in /  0.0mm 350 W/m2
11:42 49.5 °F /  9.7 °C 44.8 °F /  7.1 °C 29.7in /  1005.4hPa NW 6mph /  9.7km/h 11mph /  17.7km/h 84% 0in /  0.0mm 374 W/m2
11:47 49.6 °F /  9.8 °C 45 °F /  7.2 °C 29.7in /  1005.4hPa NW 0.9mph /  1.4km/h 8mph /  12.9km/h 84% 0in /  0.0mm 396 W/m2
11:52 49.8 °F /  9.9 °C 44.8 °F /  7.1 °C 29.7in /  1005.4hPa NNW 4.9mph /  7.9km/h 14mph /  22.5km/h 83% 0in /  0.0mm 176 W/m2
11:57 49.8 °F /  9.9 °C 44.8 °F /  7.1 °C 29.7in /  1005.8hPa WNW 11mph /  17.7km/h 15mph /  24.1km/h 83% 0in /  0.0mm 292 W/m2
12:02 49.8 °F /  9.9 °C 44.8 °F /  7.1 °C 29.7in /  1005.4hPa South 4mph /  6.4km/h 12mph /  19.3km/h 83% 0in /  0.0mm 299 W/m2
12:07 49.8 °F /  9.9 °C 44.8 °F /  7.1 °C 29.7in /  1005.4hPa West 6.9mph /  11.1km/h 15mph /  24.1km/h 83% 0in /  0.0mm 427 W/m2
12:12 50.2 °F /  10.1 °C 45.1 °F /  7.3 °C 29.7in /  1005.4hPa West 6mph /  9.7km/h 13mph /  20.9km/h 83% 0in /  0.0mm 478 W/m2
12:17 50.4 °F /  10.2 °C 45.3 °F /  7.4 °C 29.7in /  1005.1hPa West 6mph /  9.7km/h 18mph /  29km/h 83% 0in /  0.0mm 496 W/m2
12:22 50.5 °F /  10.3 °C 45.5 °F /  7.5 °C 29.7in /  1005.4hPa South 4mph /  6.4km/h 11mph /  17.7km/h 83% 0in /  0.0mm 281 W/m2
12:27 50.5 °F /  10.3 °C 45.5 °F /  7.5 °C 29.7in /  1005.4hPa NE 4.9mph /  7.9km/h 7mph /  11.3km/h 83% 0in /  0.0mm 343 W/m2
12:32 50.5 °F /  10.3 °C 45.5 °F /  7.5 °C 29.7in /  1005.1hPa WNW 6.9mph /  11.1km/h 9mph /  14.5km/h 83% 0in /  0.0mm 387 W/m2
12:37 51.1 °F /  10.6 °C 45.9 °F /  7.7 °C 29.7in /  1005.4hPa NNE 4.9mph /  7.9km/h 10mph /  16.1km/h 82% 0in /  0.0mm 410 W/m2
12:42 51.3 °F /  10.7 °C 45.7 °F /  7.6 °C 29.7in /  1005.1hPa NE 2mph /  3.2km/h 9mph /  14.5km/h 81% 0in /  0.0mm 341 W/m2
12:47 51.8 °F /  11 °C 46.4 °F /  8 °C 29.7in /  1005.1hPa WNW 8.9mph /  14.3km/h 9mph /  14.5km/h 82% 0in /  0.0mm 803 W/m2
12:53 52.2 °F /  11.2 °C 45.9 °F /  7.7 °C 29.7in /  1005.1hPa NNW 2.9mph /  4.7km/h 16mph /  25.7km/h 79% 0in /  0.0mm 401 W/m2
12:58 52.2 °F /  11.2 °C 45.9 °F /  7.7 °C 29.7in /  1004.7hPa East 0.9mph /  1.4km/h 9mph /  14.5km/h 79% 0in /  0.0mm 499 W/m2
13:03 52.3 °F /  11.3 °C 45.7 °F /  7.6 °C 29.7in /  1005.1hPa NW 6mph /  9.7km/h 18mph /  29km/h 78% 0in /  0.0mm 448 W/m2
13:08 52.3 °F /  11.3 °C 45.7 °F /  7.6 °C 29.7in /  1005.1hPa NNW 4.9mph /  7.9km/h 5mph /  8km/h 78% 0in /  0.0mm 578 W/m2
13:13 52.9 °F /  11.6 °C 46.6 °F /  8.1 °C 29.7in /  1005.1hPa ENE 2mph /  3.2km/h 18mph /  29km/h 79% 0in /  0.0mm 341 W/m2
13:18 53.1 °F /  11.7 °C 46 °F /  7.8 °C 29.7in /  1005.1hPa West 6.9mph /  11.1km/h 8mph /  12.9km/h 77% 0in /  0.0mm 283 W/m2
13:23 53.1 °F /  11.7 °C 46 °F /  7.8 °C 29.7in /  1005.1hPa West 8.1mph /  13km/h 14mph /  22.5km/h 77% 0in /  0.0mm 420 W/m2
13:28 53.1 °F /  11.7 °C 46 °F /  7.8 °C 29.7in /  1005.1hPa SE 8.1mph /  13km/h 24mph /  38.6km/h 77% 0in /  0.0mm 367 W/m2
13:33 53.2 °F /  11.8 °C 46.2 °F /  7.9 °C 29.7in /  1005.1hPa WSW 2.9mph /  4.7km/h 10mph /  16.1km/h 77% 0in /  0.0mm 325 W/m2
13:38 53.6 °F /  12 °C 46.2 °F /  7.9 °C 29.7in /  1004.7hPa WNW 12.1mph /  19.5km/h 23mph /  37km/h 76% 0in /  0.0mm 257 W/m2
13:43 53.8 °F /  12.1 °C 46 °F /  7.8 °C 29.7in /  1005.1hPa WNW 2.9mph /  4.7km/h 9mph /  14.5km/h 75% 0in /  0.0mm 271 W/m2
13:48 53.8 °F /  12.1 °C 45.7 °F /  7.6 °C 29.7in /  1005.1hPa SSE 6mph /  9.7km/h 8mph /  12.9km/h 74% 0in /  0.0mm 178 W/m2
13:53 53.8 °F /  12.1 °C 46 °F /  7.8 °C 29.7in /  1004.7hPa WNW 6.9mph /  11.1km/h 8mph /  12.9km/h 75% 0in /  0.0mm 244 W/m2
13:58 53.6 °F /  12 °C 45.9 °F /  7.7 °C 29.7in /  1004.7hPa NE 0.9mph /  1.4km/h 5mph /  8km/h 75% 0in /  0.0mm 274 W/m2
14:03 53.4 °F /  11.9 °C 46 °F /  7.8 °C 29.7in /  1004.7hPa West 8.1mph /  13km/h 8mph /  12.9km/h 76% 0in /  0.0mm 243 W/m2
14:08 53.4 °F /  11.9 °C 46 °F /  7.8 °C 29.7in /  1004.7hPa WNW 11mph /  17.7km/h 13mph /  20.9km/h 76% 0in /  0.0mm 346 W/m2
14:13 53.4 °F /  11.9 °C 46 °F /  7.8 °C 29.7in /  1004.7hPa NNE 10.1mph /  16.3km/h 10mph /  16.1km/h 76% 0in /  0.0mm 248 W/m2
Juneau County Weather
Compliments of Weather Underground - 2 mb